Time;durP1;ratioP1;P1;durP2;ratioP2;P2;SDS_P1;SDS_P2;PMS_P1;PMS_P2;Temp;Humidity;BMP_temperature;BMP_pressure;BME280_temperature;BME280_humidity;BME280_pressure;Samples;Min_cycle;Max_cycle;Signal;HPM_P1;HPM_P2
2021/12/02 00:01:19;;;;;;;;;;;20.60;42.40;;;;;;4969704;28;19917;-73
2021/12/02 00:03:45;;;;;;;;;;;20.60;42.40;;;;;;4992087;28;19929;-73
2021/12/02 00:06:11;;;;;;;;;;;20.60;42.40;;;;;;4991708;28;19980;-74
2021/12/02 00:08:37;;;;;;;;;;;20.60;42.40;;;;;;5007729;28;19933;-73
2021/12/02 00:11:02;;;;;;;;;;;20.50;42.30;;;;;;5008109;28;20294;-73
2021/12/02 00:13:30;;;;;;;;;;;20.50;42.20;;;;;;4991669;28;19918;-73
2021/12/02 00:16:06;;;;;;;;;;;20.50;42.30;;;;;;4991881;28;20337;-73
2021/12/02 00:21:03;;;;;;;;;;;20.50;42.30;;;;;;4991475;28;19917;-73
2021/12/02 00:21:21;;;;;;;;;;;20.50;42.40;;;;;;4993537;28;19933;-74
2021/12/02 00:23:51;;;;;;;;;;;20.50;42.30;;;;;;4992257;28;19918;-74
2021/12/02 00:26:17;;;;;;;;;;;20.50;42.20;;;;;;4991628;28;19920;-74
2021/12/02 00:28:42;;;;;;;;;;;20.50;42.20;;;;;;4975160;28;19914;-73
2021/12/02 00:31:13;;;;;;;;;;;20.50;42.20;;;;;;4990978;28;19961;-73
2021/12/02 00:33:39;;;;;;;;;;;20.50;42.20;;;;;;4994992;28;19918;-74
2021/12/02 00:36:04;;;;;;;;;;;20.50;42.20;;;;;;4989796;28;19929;-74
2021/12/02 00:38:30;;;;;;;;;;;20.50;42.20;;;;;;5000694;28;19920;-74
2021/12/02 00:40:55;;;;;;;;;;;20.50;42.20;;;;;;5011722;28;19917;-74
2021/12/02 00:43:21;;;;;;;;;;;20.50;42.30;;;;;;5012414;28;19952;-73
2021/12/02 00:45:46;;;;;;;;;;;20.50;42.90;;;;;;4994913;28;19910;-74
2021/12/02 00:48:12;;;;;;;;;;;20.40;42.20;;;;;;4991595;28;19910;-73
2021/12/02 00:50:39;;;;;;;;;;;20.40;42.20;;;;;;4972935;28;19918;-73
2021/12/02 00:53:05;;;;;;;;;;;20.40;42.20;;;;;;5008924;28;19922;-74
2021/12/02 00:55:31;;;;;;;;;;;20.40;42.10;;;;;;5010992;28;19964;-74
2021/12/02 00:57:56;;;;;;;;;;;20.40;42.10;;;;;;5006970;28;19913;-74
2021/12/02 01:00:22;;;;;;;;;;;20.40;42.10;;;;;;4993144;28;19968;-73
2021/12/02 01:02:48;;;;;;;;;;;20.50;42.20;;;;;;4984301;28;19910;-73
2021/12/02 01:05:13;;;;;;;;;;;20.40;42.10;;;;;;4973618;28;19910;-73
2021/12/02 01:07:39;;;;;;;;;;;20.40;42.10;;;;;;4972032;28;20029;-73
2021/12/02 01:10:04;;;;;;;;;;;20.40;42.10;;;;;;4990440;28;19968;-74
2021/12/02 01:12:30;;;;;;;;;;;20.40;42.10;;;;;;4991483;28;19960;-74
2021/12/02 01:14:55;;;;;;;;;;;20.40;42.10;;;;;;4992975;28;20030;-74
2021/12/02 01:17:21;;;;;;;;;;;20.40;42.10;;;;;;4978920;28;20351;-74
2021/12/02 01:19:46;;;;;;;;;;;20.40;42.10;;;;;;4996694;28;19914;-74
2021/12/02 01:22:12;;;;;;;;;;;20.40;42.00;;;;;;4996600;28;20337;-73
2021/12/02 01:24:37;;;;;;;;;;;20.40;42.00;;;;;;4994975;28;19917;-73
2021/12/02 01:27:05;;;;;;;;;;;20.40;42.00;;;;;;5011077;28;20366;-73
2021/12/02 01:29:30;;;;;;;;;;;20.40;42.00;;;;;;4995342;28;19910;-73
2021/12/02 01:32:00;;;;;;;;;;;20.40;42.00;;;;;;4994907;28;19910;-73
2021/12/02 01:34:26;;;;;;;;;;;20.40;42.00;;;;;;4996394;28;19913;-73
2021/12/02 01:36:52;;;;;;;;;;;20.30;41.90;;;;;;5011536;28;19910;-74
2021/12/02 01:39:17;;;;;;;;;;;20.30;42.00;;;;;;4994682;28;20416;-74
2021/12/02 01:41:44;;;;;;;;;;;20.30;42.00;;;;;;4991983;28;19914;-74
2021/12/02 01:44:10;;;;;;;;;;;20.30;42.00;;;;;;4999726;28;19914;-74
2021/12/02 01:46:36;;;;;;;;;;;20.30;41.90;;;;;;4994869;28;19909;-73
2021/12/02 01:49:03;;;;;;;;;;;20.30;41.90;;;;;;4995990;28;19910;-73
2021/12/02 01:51:29;;;;;;;;;;;20.30;42.00;;;;;;4992817;28;20362;-73
2021/12/02 01:54:07;;;;;;;;;;;20.30;41.90;;;;;;4991229;28;19922;-74
2021/12/02 01:56:35;;;;;;;;;;;20.30;41.90;;;;;;4975542;28;19910;-73
2021/12/02 01:59:05;;;;;;;;;;;20.30;42.00;;;;;;4985791;28;19968;-74
2021/12/02 02:01:30;;;;;;;;;;;20.30;42.10;;;;;;4994885;28;19933;-73
2021/12/02 02:03:56;;;;;;;;;;;20.30;42.10;;;;;;4995397;28;20366;-73
2021/12/02 02:06:33;;;;;;;;;;;20.30;42.00;;;;;;4995972;28;19918;-73
2021/12/02 02:08:58;;;;;;;;;;;20.30;42.00;;;;;;4993673;28;19921;-73
2021/12/02 02:11:27;;;;;;;;;;;20.20;41.90;;;;;;4995888;28;20275;-73
2021/12/02 02:13:53;;;;;;;;;;;20.20;41.90;;;;;;4993404;28;19918;-74
2021/12/02 02:16:18;;;;;;;;;;;20.20;41.90;;;;;;4995308;28;20298;-74
2021/12/02 02:18:44;;;;;;;;;;;20.20;41.90;;;;;;4994729;28;19963;-73
2021/12/02 02:21:13;;;;;;;;;;;20.30;41.90;;;;;;4993994;28;19910;-74
2021/12/02 02:23:44;;;;;;;;;;;20.30;41.80;;;;;;4993268;28;19918;-74
2021/12/02 02:26:09;;;;;;;;;;;20.30;41.80;;;;;;5001783;28;20382;-73
2021/12/02 02:28:35;;;;;;;;;;;20.30;41.60;;;;;;4993681;28;19913;-73
2021/12/02 02:31:00;;;;;;;;;;;20.40;41.50;;;;;;4986715;28;19910;-74
2021/12/02 02:33:33;;;;;;;;;;;20.50;41.50;;;;;;4995777;28;19917;-73
2021/12/02 02:35:59;;;;;;;;;;;20.60;41.30;;;;;;5002015;28;19995;-74
2021/12/02 02:38:24;;;;;;;;;;;20.70;41.10;;;;;;4977428;28;20343;-73
2021/12/02 02:40:50;;;;;;;;;;;20.90;40.90;;;;;;4994608;28;19914;-73
2021/12/02 02:43:23;;;;;;;;;;;21.10;40.70;;;;;;4994437;28;19921;-74
2021/12/02 02:45:49;;;;;;;;;;;21.20;40.40;;;;;;4993448;28;20314;-73
2021/12/02 02:48:14;;;;;;;;;;;21.30;40.30;;;;;;4977320;28;19914;-73
2021/12/02 02:50:40;;;;;;;;;;;21.40;40.00;;;;;;4994213;28;19972;-73
2021/12/02 02:53:10;;;;;;;;;;;21.50;39.90;;;;;;4993321;28;20426;-74
2021/12/02 02:55:36;;;;;;;;;;;21.60;39.60;;;;;;4977100;28;19917;-74
2021/12/02 03:00:34;;;;;;;;;;;21.80;39.50;;;;;;4997644;28;19921;-74
2021/12/02 03:08:22;;;;;;;;;;;21.80;39.20;;;;;;4981974;28;19968;-74
2021/12/02 03:10:53;;;;;;;;;;;21.80;39.20;;;;;;4974020;28;19961;-74
2021/12/02 03:13:29;;;;;;;;;;;21.80;39.30;;;;;;4979893;28;19950;-74
2021/12/02 03:18:38;;;;;;;;;;;21.80;39.30;;;;;;4994154;28;19920;-74
2021/12/02 03:21:16;;;;;;;;;;;21.80;39.30;;;;;;4993269;28;20001;-73
2021/12/02 03:23:51;;;;;;;;;;;21.80;39.30;;;;;;4992859;28;20358;-74
2021/12/02 03:26:16;;;;;;;;;;;21.80;39.40;;;;;;4973575;28;19916;-74
2021/12/02 03:28:42;;;;;;;;;;;21.80;39.30;;;;;;4983360;28;19910;-74
2021/12/02 03:31:10;;;;;;;;;;;21.80;39.30;;;;;;4992740;28;19910;-74
2021/12/02 03:33:36;;;;;;;;;;;21.80;39.40;;;;;;4976373;28;19925;-73
2021/12/02 03:36:01;;;;;;;;;;;21.80;39.40;;;;;;4976583;28;19910;-73
2021/12/02 03:38:27;;;;;;;;;;;21.80;39.40;;;;;;4991647;28;19909;-74
2021/12/02 03:40:52;;;;;;;;;;;21.80;39.40;;;;;;4992436;28;19910;-74
2021/12/02 03:43:18;;;;;;;;;;;21.80;39.40;;;;;;4993606;28;19913;-73
2021/12/02 03:45:43;;;;;;;;;;;21.80;39.30;;;;;;4994008;28;20448;-74
2021/12/02 03:48:08;;;;;;;;;;;21.80;39.40;;;;;;4992720;28;20290;-74
2021/12/02 03:50:34;;;;;;;;;;;21.80;39.40;;;;;;4993778;28;19914;-74
2021/12/02 03:52:59;;;;;;;;;;;21.80;39.50;;;;;;4972350;28;19957;-74
2021/12/02 03:55:25;;;;;;;;;;;21.80;39.50;;;;;;4992076;28;19914;-74
2021/12/02 03:57:50;;;;;;;;;;;21.70;39.40;;;;;;4978776;28;19910;-74
2021/12/02 04:00:16;;;;;;;;;;;21.80;39.50;;;;;;4991825;28;20338;-74
2021/12/02 04:02:41;;;;;;;;;;;21.70;39.40;;;;;;4991964;28;19914;-74
2021/12/02 04:05:07;;;;;;;;;;;21.70;39.50;;;;;;4993275;28;19917;-74
2021/12/02 04:07:32;;;;;;;;;;;21.70;39.50;;;;;;4992982;28;20430;-73
2021/12/02 04:09:58;;;;;;;;;;;21.70;39.50;;;;;;4992705;28;20286;-74
2021/12/02 04:12:46;;;;;;;;;;;21.70;39.50;;;;;;4991534;28;19922;-74
2021/12/02 04:15:17;;;;;;;;;;;21.80;39.60;;;;;;4992890;28;19953;-74
2021/12/02 04:17:43;;;;;;;;;;;21.70;39.50;;;;;;4998081;28;19976;-74
2021/12/02 04:20:15;;;;;;;;;;;21.70;39.50;;;;;;4972794;28;19914;-74
2021/12/02 04:22:41;;;;;;;;;;;21.80;39.60;;;;;;4972651;28;19910;-73
2021/12/02 04:25:06;;;;;;;;;;;21.70;39.50;;;;;;4972401;28;19933;-74
2021/12/02 04:27:32;;;;;;;;;;;21.70;39.50;;;;;;4956183;28;20268;-74
2021/12/02 04:29:57;;;;;;;;;;;21.70;39.60;;;;;;4976555;28;20447;-74
2021/12/02 04:32:23;;;;;;;;;;;21.70;39.50;;;;;;4993779;28;20036;-74
2021/12/02 04:34:48;;;;;;;;;;;21.70;39.50;;;;;;4991925;28;19914;-74
2021/12/02 04:37:14;;;;;;;;;;;21.70;39.60;;;;;;4991804;28;19914;-73
2021/12/02 04:39:39;;;;;;;;;;;21.60;39.60;;;;;;4991593;28;19909;-73
2021/12/02 04:42:05;;;;;;;;;;;21.50;39.90;;;;;;4991406;28;19968;-74
2021/12/02 04:44:30;;;;;;;;;;;21.40;40.10;;;;;;4993034;28;19910;-74
2021/12/02 04:46:55;;;;;;;;;;;21.20;40.30;;;;;;4991868;28;19949;-74
2021/12/02 04:49:21;;;;;;;;;;;21.00;40.50;;;;;;4992032;28;20290;-74
2021/12/02 04:51:46;;;;;;;;;;;21.00;40.70;;;;;;4995686;28;19918;-73
2021/12/02 04:54:12;;;;;;;;;;;21.00;40.80;;;;;;4995189;28;20005;-73
2021/12/02 04:56:37;;;;;;;;;;;21.00;40.70;;;;;;4979491;28;19945;-73
2021/12/02 04:59:03;;;;;;;;;;;21.10;40.60;;;;;;4996086;28;19922;-74
2021/12/02 05:01:28;;;;;;;;;;;21.10;40.40;;;;;;4995922;28;20012;-74
2021/12/02 05:03:54;;;;;;;;;;;21.30;40.40;;;;;;4995636;28;19996;-74
2021/12/02 05:06:19;;;;;;;;;;;21.40;40.10;;;;;;4993520;28;19929;-74
2021/12/02 05:08:45;;;;;;;;;;;21.50;40.10;;;;;;4975542;28;19918;-74
2021/12/02 05:11:10;;;;;;;;;;;21.50;39.90;;;;;;4983454;28;19921;-74
2021/12/02 05:13:36;;;;;;;;;;;21.60;39.80;;;;;;4995448;28;20290;-74
2021/12/02 05:16:01;;;;;;;;;;;21.60;39.70;;;;;;4995553;28;19962;-74
2021/12/02 05:18:26;;;;;;;;;;;21.60;39.70;;;;;;4996333;28;19910;-74
2021/12/02 05:20:52;;;;;;;;;;;21.60;39.70;;;;;;4982124;28;19973;-74
2021/12/02 05:23:17;;;;;;;;;;;21.60;39.70;;;;;;4982294;28;20572;-74
2021/12/02 05:25:44;;;;;;;;;;;21.70;39.70;;;;;;5005726;28;19924;-74
2021/12/02 05:28:10;;;;;;;;;;;21.70;39.70;;;;;;4994796;28;19945;-73
2021/12/02 05:30:36;;;;;;;;;;;21.70;39.70;;;;;;4995770;28;19914;-73
2021/12/02 05:33:01;;;;;;;;;;;21.70;39.60;;;;;;4996025;28;19968;-74
2021/12/02 05:35:27;;;;;;;;;;;21.70;39.60;;;;;;4995477;28;19941;-74
2021/12/02 05:37:52;;;;;;;;;;;21.70;39.60;;;;;;4994799;28;19910;-73
2021/12/02 05:40:18;;;;;;;;;;;21.70;39.60;;;;;;4995178;28;19967;-73
2021/12/02 05:42:43;;;;;;;;;;;21.70;39.60;;;;;;4995375;28;19964;-74
2021/12/02 05:45:09;;;;;;;;;;;21.70;39.60;;;;;;4994177;28;19917;-74
2021/12/02 05:47:34;;;;;;;;;;;21.70;39.60;;;;;;4994601;28;20359;-74
2021/12/02 05:50:00;;;;;;;;;;;21.70;39.60;;;;;;4995820;28;20370;-74
2021/12/02 05:52:25;;;;;;;;;;;21.70;39.60;;;;;;4999638;28;20370;-74
2021/12/02 05:54:51;;;;;;;;;;;21.70;39.60;;;;;;4974749;28;19910;-74
2021/12/02 05:57:16;;;;;;;;;;;21.70;39.60;;;;;;4978548;28;19916;-74
2021/12/02 05:59:42;;;;;;;;;;;21.70;39.60;;;;;;4989843;28;20370;-74
2021/12/02 06:02:08;;;;;;;;;;;21.70;39.60;;;;;;4973929;28;19914;-72
2021/12/02 06:04:34;;;;;;;;;;;21.70;39.60;;;;;;4975060;28;19965;-74
2021/12/02 06:07:00;;;;;;;;;;;21.70;39.60;;;;;;4977826;28;20443;-74
2021/12/02 06:09:25;;;;;;;;;;;21.70;39.60;;;;;;4993933;28;19914;-73
2021/12/02 06:11:51;;;;;;;;;;;21.70;39.60;;;;;;4993688;28;20358;-73
2021/12/02 06:14:16;;;;;;;;;;;21.70;39.60;;;;;;4995206;28;20394;-73
2021/12/02 06:16:42;;;;;;;;;;;21.70;39.60;;;;;;4995344;28;20358;-74
2021/12/02 06:19:07;;;;;;;;;;;21.70;39.60;;;;;;5010143;28;20008;-74
2021/12/02 06:21:33;;;;;;;;;;;21.70;39.60;;;;;;4994177;28;19914;-74
2021/12/02 06:23:58;;;;;;;;;;;21.70;39.60;;;;;;4995020;28;19913;-74
2021/12/02 06:26:24;;;;;;;;;;;21.60;39.60;;;;;;5010234;28;19971;-73
2021/12/02 06:28:49;;;;;;;;;;;21.70;39.60;;;;;;5009414;28;19910;-73
2021/12/02 06:31:15;;;;;;;;;;;21.70;39.60;;;;;;5003876;28;19914;-73
2021/12/02 06:33:40;;;;;;;;;;;21.60;39.60;;;;;;4993414;28;19989;-74
2021/12/02 06:36:05;;;;;;;;;;;21.60;39.60;;;;;;5010211;28;20024;-74
2021/12/02 06:38:31;;;;;;;;;;;21.60;39.60;;;;;;4993765;28;20333;-74
2021/12/02 06:40:56;;;;;;;;;;;21.60;39.60;;;;;;4994138;28;19945;-74
2021/12/02 06:43:22;;;;;;;;;;;21.60;39.70;;;;;;4994852;28;19910;-74
2021/12/02 06:45:47;;;;;;;;;;;21.60;39.60;;;;;;4977115;28;20008;-74
2021/12/02 06:48:13;;;;;;;;;;;21.70;39.70;;;;;;4993278;28;19918;-74
2021/12/02 06:50:38;;;;;;;;;;;21.60;39.60;;;;;;4990181;28;20349;-74
2021/12/02 06:53:04;;;;;;;;;;;21.60;39.70;;;;;;4964388;28;19956;-74
2021/12/02 06:55:30;;;;;;;;;;;21.60;39.70;;;;;;4976075;28;19965;-74
2021/12/02 06:57:56;;;;;;;;;;;21.60;39.80;;;;;;4987472;28;19913;-73
2021/12/02 07:00:21;;;;;;;;;;;21.60;39.80;;;;;;4985612;28;19914;-73
2021/12/02 07:02:47;;;;;;;;;;;21.60;39.70;;;;;;4964878;28;19914;-73
2021/12/02 07:05:13;;;;;;;;;;;21.60;39.80;;;;;;5009250;28;19952;-74
2021/12/02 07:07:38;;;;;;;;;;;21.60;39.90;;;;;;4993277;28;19932;-74
2021/12/02 07:10:11;;;;;;;;;;;21.60;39.90;;;;;;4988377;28;19914;-74
2021/12/02 07:12:39;;;;;;;;;;;21.60;39.90;;;;;;4956820;28;19914;-74
2021/12/02 07:15:09;;;;;;;;;;;21.60;39.90;;;;;;4968485;28;19984;-74
2021/12/02 07:17:35;;;;;;;;;;;21.60;40.00;;;;;;5004612;28;19932;-73
2021/12/02 07:20:00;;;;;;;;;;;21.60;39.90;;;;;;4993704;28;20274;-74
2021/12/02 07:22:26;;;;;;;;;;;21.60;39.90;;;;;;4988675;28;19914;-74
2021/12/02 07:24:51;;;;;;;;;;;21.60;40.00;;;;;;5008421;28;19924;-73
2021/12/02 07:27:17;;;;;;;;;;;21.60;40.00;;;;;;4993925;28;20358;-73
2021/12/02 07:29:42;;;;;;;;;;;21.60;40.10;;;;;;4992609;28;19938;-73
2021/12/02 07:32:10;;;;;;;;;;;21.60;40.10;;;;;;4993097;28;20004;-74
2021/12/02 07:34:37;;;;;;;;;;;21.60;40.20;;;;;;4976754;28;20292;-74
2021/12/02 07:37:03;;;;;;;;;;;21.60;40.20;;;;;;5008082;28;19921;-74
2021/12/02 07:39:28;;;;;;;;;;;21.60;40.20;;;;;;5008528;28;20313;-75
2021/12/02 07:41:54;;;;;;;;;;;21.60;40.20;;;;;;4990343;28;19936;-74
2021/12/02 07:44:19;;;;;;;;;;;21.60;40.00;;;;;;4991505;28;19918;-74
2021/12/02 07:46:45;;;;;;;;;;;21.60;39.90;;;;;;5004133;28;19924;-74
2021/12/02 07:49:13;;;;;;;;;;;21.60;40.00;;;;;;4987014;28;19911;-73
2021/12/02 07:51:39;;;;;;;;;;;21.60;40.00;;;;;;4973145;28;19921;-74
2021/12/02 07:54:04;;;;;;;;;;;21.60;40.00;;;;;;4972476;28;19916;-74
2021/12/02 07:56:29;;;;;;;;;;;21.60;40.00;;;;;;4979237;28;19910;-74
2021/12/02 07:58:55;;;;;;;;;;;21.60;40.10;;;;;;4985760;28;19917;-73
2021/12/02 08:01:20;;;;;;;;;;;21.60;40.10;;;;;;4990267;28;19957;-74
2021/12/02 08:03:47;;;;;;;;;;;21.60;40.20;;;;;;4987430;28;19917;-74
2021/12/02 08:06:13;;;;;;;;;;;21.60;40.30;;;;;;4987424;28;20397;-74
2021/12/02 08:08:38;;;;;;;;;;;21.60;40.30;;;;;;4975183;28;19913;-74
2021/12/02 08:11:07;;;;;;;;;;;21.60;40.30;;;;;;4959336;28;19969;-73
2021/12/02 08:13:33;;;;;;;;;;;21.60;40.30;;;;;;4983944;28;20386;-73
2021/12/02 08:15:58;;;;;;;;;;;21.60;40.30;;;;;;4990371;28;19914;-74
2021/12/02 08:18:24;;;;;;;;;;;21.60;40.20;;;;;;4975539;28;19914;-74
2021/12/02 08:20:49;;;;;;;;;;;21.70;40.40;;;;;;4991360;28;19917;-74
2021/12/02 08:23:15;;;;;;;;;;;21.70;40.30;;;;;;4990144;28;19932;-74
2021/12/02 08:25:40;;;;;;;;;;;21.80;40.30;;;;;;4991481;28;19910;-74
2021/12/02 08:28:06;;;;;;;;;;;21.80;40.20;;;;;;4990444;28;19972;-74
2021/12/02 08:30:33;;;;;;;;;;;21.90;40.20;;;;;;4993203;28;19972;-74
2021/12/02 08:32:59;;;;;;;;;;;22.00;40.10;;;;;;4991988;28;19922;-74
2021/12/02 08:35:26;;;;;;;;;;;22.00;40.00;;;;;;4992598;28;19973;-74
2021/12/02 08:37:54;;;;;;;;;;;22.10;40.70;;;;;;4993575;28;19914;-74
2021/12/02 08:40:22;;;;;;;;;;;22.10;40.00;;;;;;4990819;28;20333;-73
2021/12/02 08:42:48;;;;;;;;;;;22.20;40.10;;;;;;4986246;28;19969;-74
2021/12/02 08:45:14;;;;;;;;;;;22.20;40.00;;;;;;5006446;28;20000;-74
2021/12/02 08:47:45;;;;;;;;;;;22.20;40.00;;;;;;4989648;28;20351;-74
2021/12/02 08:50:14;;;;;;;;;;;22.20;40.00;;;;;;4990236;28;19918;-74
2021/12/02 08:52:39;;;;;;;;;;;22.30;40.00;;;;;;4992054;28;19918;-74
2021/12/02 08:55:05;;;;;;;;;;;22.30;40.00;;;;;;4999550;28;19929;-74
2021/12/02 08:57:31;;;;;;;;;;;22.30;40.00;;;;;;4991206;28;19928;-74
2021/12/02 08:59:57;;;;;;;;;;;22.30;39.80;;;;;;4989921;28;20012;-74
2021/12/02 09:02:22;;;;;;;;;;;22.30;39.70;;;;;;4992120;28;19914;-74
2021/12/02 09:04:48;;;;;;;;;;;22.40;39.70;;;;;;5002309;28;19917;-74
2021/12/02 09:07:14;;;;;;;;;;;22.40;39.60;;;;;;4979553;28;19925;-74
2021/12/02 09:09:40;;;;;;;;;;;22.40;39.60;;;;;;4985237;28;19910;-74
2021/12/02 09:12:07;;;;;;;;;;;22.40;39.50;;;;;;4980998;28;20457;-73
2021/12/02 09:14:32;;;;;;;;;;;22.40;39.40;;;;;;4986039;28;19914;-73
2021/12/02 09:16:58;;;;;;;;;;;22.50;39.50;;;;;;4992203;28;20267;-74
2021/12/02 09:19:23;;;;;;;;;;;22.50;39.50;;;;;;4993543;28;19922;-74
2021/12/02 09:21:49;;;;;;;;;;;22.50;39.50;;;;;;4987772;28;19930;-74
2021/12/02 09:24:18;;;;;;;;;;;22.50;39.50;;;;;;4990313;28;19922;-73
2021/12/02 09:26:53;;;;;;;;;;;22.50;39.50;;;;;;4992083;28;19924;-74
2021/12/02 09:29:19;;;;;;;;;;;22.50;39.50;;;;;;4991185;28;19924;-74
2021/12/02 09:31:44;;;;;;;;;;;22.50;39.50;;;;;;4974722;28;19913;-74
2021/12/02 09:34:10;;;;;;;;;;;22.50;39.50;;;;;;4987479;28;19918;-74
2021/12/02 09:36:35;;;;;;;;;;;22.50;39.50;;;;;;4997858;28;19976;-74
2021/12/02 09:39:01;;;;;;;;;;;22.50;39.60;;;;;;4996018;28;20301;-74
2021/12/02 09:41:27;;;;;;;;;;;22.50;39.60;;;;;;4977511;28;19914;-73
2021/12/02 09:43:52;;;;;;;;;;;22.50;39.60;;;;;;4993849;28;19914;-74
2021/12/02 09:46:17;;;;;;;;;;;22.50;39.60;;;;;;4994604;28;19913;-74
2021/12/02 09:48:44;;;;;;;;;;;22.60;39.60;;;;;;4995101;28;19918;-73
2021/12/02 09:51:12;;;;;;;;;;;22.60;39.60;;;;;;5009557;28;19964;-73
2021/12/02 09:54:00;;;;;;;;;;;22.60;39.60;;;;;;5002788;28;19977;-74
2021/12/02 09:56:28;;;;;;;;;;;22.60;39.60;;;;;;4993851;28;20381;-74
2021/12/02 09:58:56;;;;;;;;;;;22.60;39.60;;;;;;4995682;28;19998;-74
2021/12/02 10:01:30;;;;;;;;;;;22.60;39.60;;;;;;4994284;28;19968;-73
2021/12/02 10:04:01;;;;;;;;;;;22.60;39.60;;;;;;4998967;28;20363;-75
2021/12/02 10:06:31;;;;;;;;;;;22.60;39.60;;;;;;4995457;28;20324;-74
2021/12/02 10:09:07;;;;;;;;;;;22.60;39.60;;;;;;4999992;28;19925;-75
2021/12/02 10:11:39;;;;;;;;;;;22.60;39.50;;;;;;4996214;28;19921;-74
2021/12/02 10:14:27;;;;;;;;;;;22.60;39.50;;;;;;5005353;28;20301;-73
2021/12/02 10:17:06;;;;;;;;;;;22.60;39.60;;;;;;4994556;28;19937;-74
2021/12/02 10:19:31;;;;;;;;;;;22.60;39.50;;;;;;4994358;28;19910;-74
2021/12/02 10:22:04;;;;;;;;;;;22.70;39.50;;;;;;4975085;28;19980;-74
2021/12/02 10:24:29;;;;;;;;;;;22.60;39.40;;;;;;4999188;28;19918;-73
2021/12/02 10:27:03;;;;;;;;;;;22.70;39.40;;;;;;5008123;28;20004;-74
2021/12/02 10:29:33;;;;;;;;;;;22.70;39.50;;;;;;4992596;28;19964;-75
2021/12/02 10:32:06;;;;;;;;;;;22.70;39.50;;;;;;4992978;28;20652;-74
2021/12/02 10:34:31;;;;;;;;;;;22.70;39.60;;;;;;5007750;28;20366;-74
2021/12/02 10:37:07;;;;;;;;;;;22.70;39.50;;;;;;4992009;28;19918;-74
2021/12/02 10:39:32;;;;;;;;;;;22.70;39.30;;;;;;5008619;28;19910;-74
2021/12/02 10:42:08;;;;;;;;;;;22.70;39.30;;;;;;4993599;28;20519;-74
2021/12/02 10:44:34;;;;;;;;;;;22.70;39.50;;;;;;5006088;28;19917;-74
2021/12/02 10:47:10;;;;;;;;;;;22.70;39.40;;;;;;4991423;28;19945;-74
2021/12/02 10:49:41;;;;;;;;;;;22.70;39.30;;;;;;4991846;28;19945;-74
2021/12/02 10:52:09;;;;;;;;;;;22.70;39.30;;;;;;4990078;28;19924;-74
2021/12/02 10:54:36;;;;;;;;;;;22.70;39.30;;;;;;4975026;28;19910;-73
2021/12/02 10:57:14;;;;;;;;;;;22.70;39.40;;;;;;4992070;28;20366;-74
2021/12/02 10:59:45;;;;;;;;;;;22.70;39.30;;;;;;4993989;28;19993;-73
2021/12/02 11:02:17;;;;;;;;;;;22.70;39.40;;;;;;4992029;28;19913;-73
2021/12/02 11:04:43;;;;;;;;;;;22.70;39.40;;;;;;4987171;28;20457;-74
2021/12/02 11:07:11;;;;;;;;;;;22.70;39.30;;;;;;4991649;28;19926;-74
2021/12/02 11:09:37;;;;;;;;;;;22.80;39.30;;;;;;4989401;28;19922;-73
2021/12/02 11:12:13;;;;;;;;;;;22.80;39.30;;;;;;4991740;28;20366;-74
2021/12/02 11:14:41;;;;;;;;;;;22.80;39.40;;;;;;4989961;28;20020;-74
2021/12/02 11:17:13;;;;;;;;;;;22.80;39.30;;;;;;4985584;28;19918;-73
2021/12/02 11:19:42;;;;;;;;;;;22.80;39.20;;;;;;4986108;28;20341;-73
2021/12/02 11:22:08;;;;;;;;;;;22.80;39.20;;;;;;4989613;28;19914;-73
2021/12/02 11:24:33;;;;;;;;;;;22.90;39.30;;;;;;4993152;28;19921;-74
2021/12/02 11:27:14;;;;;;;;;;;22.90;39.20;;;;;;4976179;28;20449;-73
2021/12/02 11:29:49;;;;;;;;;;;22.90;39.10;;;;;;4990063;28;19918;-73
2021/12/02 11:32:25;;;;;;;;;;;22.90;39.10;;;;;;4974672;28;19917;-74
2021/12/02 11:34:59;;;;;;;;;;;22.90;39.10;;;;;;4994246;28;19921;-73
2021/12/02 11:37:25;;;;;;;;;;;22.90;39.00;;;;;;4992198;28;19921;-73
2021/12/02 11:39:51;;;;;;;;;;;22.90;39.20;;;;;;4975519;28;19914;-74
2021/12/02 11:42:17;;;;;;;;;;;22.80;39.20;;;;;;4976517;28;19924;-74
2021/12/02 11:44:42;;;;;;;;;;;22.80;39.20;;;;;;4975514;28;20289;-74
2021/12/02 11:47:08;;;;;;;;;;;22.80;39.20;;;;;;4991568;28;19996;-74
2021/12/02 11:49:34;;;;;;;;;;;22.80;39.80;;;;;;4977212;28;19918;-73
2021/12/02 11:52:00;;;;;;;;;;;22.80;39.20;;;;;;4991295;28;19914;-74
2021/12/02 11:54:25;;;;;;;;;;;22.80;39.10;;;;;;4992772;28;19977;-74
2021/12/02 11:56:50;;;;;;;;;;;22.70;39.20;;;;;;4992420;28;19914;-73
2021/12/02 11:59:16;;;;;;;;;;;22.70;39.20;;;;;;5007572;28;20001;-74
2021/12/02 12:01:43;;;;;;;;;;;22.70;39.20;;;;;;4991751;28;19918;-73
2021/12/02 12:04:09;;;;;;;;;;;22.70;39.20;;;;;;4992032;28;19921;-73
2021/12/02 12:06:34;;;;;;;;;;;22.70;39.20;;;;;;5005490;28;19992;-74
2021/12/02 12:09:00;;;;;;;;;;;22.70;39.20;;;;;;4991175;28;20024;-73
2021/12/02 12:11:27;;;;;;;;;;;22.70;39.20;;;;;;4976100;28;19961;-74
2021/12/02 12:13:53;;;;;;;;;;;22.70;39.30;;;;;;4973065;28;19917;-74
2021/12/02 12:16:22;;;;;;;;;;;22.60;39.30;;;;;;4993141;28;19917;-74
2021/12/02 12:18:48;;;;;;;;;;;22.60;39.30;;;;;;5001410;28;19939;-74
2021/12/02 12:21:13;;;;;;;;;;;22.60;39.30;;;;;;4991924;28;19918;-74
2021/12/02 12:23:40;;;;;;;;;;;22.60;39.30;;;;;;4992821;28;20441;-74
2021/12/02 12:26:12;;;;;;;;;;;22.60;39.30;;;;;;4994035;28;19933;-73
2021/12/02 12:28:57;;;;;;;;;;;22.60;39.30;;;;;;4992077;28;20229;-73
2021/12/02 12:31:22;;;;;;;;;;;22.60;39.30;;;;;;4992825;28;19969;-74
2021/12/02 12:33:48;;;;;;;;;;;22.60;39.30;;;;;;4998875;28;19945;-73
2021/12/02 12:36:32;;;;;;;;;;;22.60;39.30;;;;;;4986333;28;19914;-73
2021/12/02 12:39:18;;;;;;;;;;;22.60;39.30;;;;;;4990598;28;19960;-73
2021/12/02 12:41:43;;;;;;;;;;;22.60;39.20;;;;;;4973273;28;19918;-73
2021/12/02 12:44:09;;;;;;;;;;;22.60;39.20;;;;;;4975331;28;19918;-73
2021/12/02 12:46:35;;;;;;;;;;;22.60;39.30;;;;;;4991984;28;19913;-73
2021/12/02 12:49:16;;;;;;;;;;;22.60;39.30;;;;;;4991882;28;20279;-73
2021/12/02 12:51:48;;;;;;;;;;;22.60;39.30;;;;;;4991585;28;19918;-74
2021/12/02 12:54:18;;;;;;;;;;;22.60;39.30;;;;;;4992583;28;19918;-74
2021/12/02 12:56:46;;;;;;;;;;;22.60;39.30;;;;;;4991610;28;20009;-74
2021/12/02 12:59:12;;;;;;;;;;;22.60;39.30;;;;;;4973905;28;20401;-74
2021/12/02 13:01:38;;;;;;;;;;;22.60;39.40;;;;;;4980610;28;20015;-74
2021/12/02 13:04:10;;;;;;;;;;;22.60;39.50;;;;;;4994929;28;19917;-73
2021/12/02 13:07:03;;;;;;;;;;;22.60;39.50;;;;;;4984821;28;19929;-74
2021/12/02 13:09:41;;;;;;;;;;;22.60;39.50;;;;;;4989264;28;19960;-74
2021/12/02 13:12:07;;;;;;;;;;;22.60;39.60;;;;;;4995688;28;20001;-74
2021/12/02 13:14:33;;;;;;;;;;;22.60;39.50;;;;;;5014986;28;20381;-74
2021/12/02 13:16:59;;;;;;;;;;;22.60;39.60;;;;;;4996358;28;19918;-74
2021/12/02 13:19:26;;;;;;;;;;;22.60;39.60;;;;;;4983945;28;19914;-74
2021/12/02 13:21:58;;;;;;;;;;;22.60;39.60;;;;;;4977238;28;19913;-74
2021/12/02 13:24:31;;;;;;;;;;;22.60;39.60;;;;;;5000316;28;20204;-74
2021/12/02 13:27:03;;;;;;;;;;;22.60;39.60;;;;;;4996198;28;19918;-75
2021/12/02 13:29:30;;;;;;;;;;;22.60;39.60;;;;;;4996487;28;20060;-74
2021/12/02 13:31:56;;;;;;;;;;;22.60;39.60;;;;;;4994899;28;19914;-74
2021/12/02 13:34:23;;;;;;;;;;;22.60;39.70;;;;;;5011642;28;19917;-74
2021/12/02 13:36:58;;;;;;;;;;;22.60;39.80;;;;;;4978842;28;19926;-74
2021/12/02 13:39:26;;;;;;;;;;;22.60;40.00;;;;;;4995383;28;20279;-75
2021/12/02 13:41:55;;;;;;;;;;;22.60;40.20;;;;;;4993981;28;20346;-74
2021/12/02 13:44:27;;;;;;;;;;;22.60;40.30;;;;;;4994930;28;19920;-74
2021/12/02 13:46:57;;;;;;;;;;;22.60;40.50;;;;;;4986009;28;19914;-74
2021/12/02 13:49:27;;;;;;;;;;;22.60;40.50;;;;;;4993564;28;19917;-74
2021/12/02 13:52:20;;;;;;;;;;;22.60;40.50;;;;;;5000031;28;19914;-74
2021/12/02 13:54:51;;;;;;;;;;;22.60;40.80;;;;;;4980127;28;19977;-74
2021/12/02 13:57:28;;;;;;;;;;;22.60;40.80;;;;;;4998659;28;19921;-74
2021/12/02 13:59:53;;;;;;;;;;;22.60;40.80;;;;;;4994153;28;19925;-73
2021/12/02 14:02:19;;;;;;;;;;;22.60;40.90;;;;;;4994386;28;19914;-72
2021/12/02 14:04:45;;;;;;;;;;;22.60;40.80;;;;;;4996306;28;19914;-74
2021/12/02 14:07:12;;;;;;;;;;;22.60;41.00;;;;;;4994904;28;20397;-74
2021/12/02 14:10:07;;;;;;;;;;;22.70;40.90;;;;;;4990217;28;20327;-73
2021/12/02 14:12:40;;;;;;;;;;;22.60;40.90;;;;;;4980056;28;20315;-74
2021/12/02 14:15:06;;;;;;;;;;;22.60;41.00;;;;;;4994751;28;19945;-73
2021/12/02 14:17:32;;;;;;;;;;;22.60;40.90;;;;;;4994504;28;19917;-73
2021/12/02 14:20:03;;;;;;;;;;;22.60;40.90;;;;;;4993343;28;19913;-74
2021/12/02 14:22:30;;;;;;;;;;;22.60;40.90;;;;;;4993505;28;19924;-73
2021/12/02 14:24:55;;;;;;;;;;;22.60;41.00;;;;;;4977293;28;19909;-74
2021/12/02 14:27:20;;;;;;;;;;;22.60;41.10;;;;;;4993930;28;20514;-74
2021/12/02 14:29:46;;;;;;;;;;;22.60;41.00;;;;;;4993260;28;20432;-73